createdAt,value
2022-10-06T00:02:36.334Z,14.00
2022-10-06T00:12:50.058Z,16.20
2022-10-06T00:17:56.955Z,16.50
2022-10-06T00:23:03.331Z,12.00
2022-10-06T00:28:10.404Z,13.60
2022-10-06T00:33:18.007Z,14.10
2022-10-06T00:38:25.573Z,12.70
2022-10-06T00:43:51.064Z,12.90
2022-10-06T00:49:02.302Z,13.50
2022-10-06T00:59:15.618Z,12.70
2022-10-06T01:04:24.043Z,15.40
2022-10-06T01:09:31.578Z,16.60
2022-10-06T01:14:39.875Z,14.00
2022-10-06T01:19:52.500Z,12.50
2022-10-06T01:24:58.756Z,12.20
2022-10-06T01:30:07.663Z,12.10
2022-10-06T01:35:13.647Z,11.90
2022-10-06T01:40:19.682Z,11.50
2022-10-06T01:45:25.503Z,12.00
2022-10-06T01:50:31.410Z,15.70
2022-10-06T01:55:37.274Z,15.80
2022-10-06T02:00:44.940Z,12.10
2022-10-06T02:05:50.970Z,14.50
2022-10-06T02:10:56.985Z,14.40
2022-10-06T02:16:06.763Z,14.50
2022-10-06T02:21:17.367Z,14.00
2022-10-06T02:26:23.623Z,18.60
2022-10-06T02:31:31.144Z,10.20
2022-10-06T02:36:37.656Z,14.60
2022-10-06T02:41:44.369Z,13.30
2022-10-06T02:46:52.730Z,11.90
2022-10-06T02:51:58.856Z,13.70
2022-10-06T02:57:05.869Z,11.60
2022-10-06T03:02:11.919Z,17.70
2022-10-06T03:07:18.004Z,11.80
2022-10-06T03:12:24.302Z,20.40
2022-10-06T03:17:31.137Z,18.00
2022-10-06T03:22:37.898Z,19.00
2022-10-06T03:27:44.670Z,13.90
2022-10-06T03:32:52.031Z,10.80
2022-10-06T03:38:00.559Z,13.80
2022-10-06T03:43:09.166Z,14.80
2022-10-06T03:48:15.486Z,12.40
2022-10-06T03:53:25.602Z,23.40
2022-10-06T03:58:33.154Z,18.60
2022-10-06T04:03:40.137Z,21.30
2022-10-06T04:08:47.725Z,26.70
2022-10-06T04:13:56.789Z,22.30
2022-10-06T04:19:06.357Z,13.30
2022-10-06T04:24:13.125Z,16.90
2022-10-06T04:29:21.822Z,11.80
2022-10-06T04:34:32.150Z,14.10
2022-10-06T04:39:38.298Z,12.90
2022-10-06T04:44:45.317Z,12.50
2022-10-06T04:49:51.472Z,12.10
2022-10-06T04:54:57.732Z,9.20
2022-10-06T05:00:22.728Z,7.80
2022-10-06T05:05:29.492Z,7.90
2022-10-06T05:10:35.960Z,5.90
2022-10-06T05:15:42.358Z,10.60
2022-10-06T05:20:57.119Z,6.80
2022-10-06T05:26:03.146Z,11.10
2022-10-06T05:31:12.768Z,7.90
2022-10-06T05:36:21.063Z,11.10
2022-10-06T05:41:30.137Z,8.50
2022-10-06T05:46:38.267Z,6.20
2022-10-06T05:51:51.035Z,15.00
2022-10-06T05:57:01.801Z,9.20
2022-10-06T06:02:10.405Z,6.90
2022-10-06T06:07:18.451Z,8.70
2022-10-06T06:12:25.150Z,7.50
2022-10-06T06:18:06.051Z,5.30
2022-10-06T06:23:12.241Z,4.90
2022-10-06T06:28:18.758Z,7.20
2022-10-06T06:33:24.773Z,5.20
2022-10-06T06:38:32.325Z,5.60
2022-10-06T06:43:39.416Z,5.10
2022-10-06T06:49:04.703Z,7.50
2022-10-06T06:54:13.540Z,6.70
2022-10-06T06:59:22.417Z,8.90
2022-10-06T07:04:32.836Z,4.70
2022-10-06T07:09:39.174Z,7.50
2022-10-06T07:15:09.071Z,8.80
2022-10-06T07:20:37.665Z,6.90
2022-10-06T07:25:43.689Z,5.70
2022-10-06T07:30:50.519Z,6.70
2022-10-06T07:35:59.220Z,11.00
2022-10-06T07:41:18.812Z,7.20
2022-10-06T07:46:35.402Z,6.50
2022-10-06T07:51:45.342Z,6.80
2022-10-06T07:56:51.473Z,5.50
2022-10-06T08:01:57.422Z,9.30
2022-10-06T08:07:03.299Z,9.70
2022-10-06T08:12:27.869Z,7.40
2022-10-06T08:17:34.243Z,8.60
2022-10-06T08:22:41.149Z,8.00
2022-10-06T08:27:53.262Z,4.40
2022-10-06T08:32:59.555Z,6.00
2022-10-06T08:38:05.424Z,5.00
2022-10-06T08:43:16.775Z,7.90
2022-10-06T08:48:26.818Z,4.60
2022-10-06T08:53:39.379Z,11.00
2022-10-06T08:58:54.044Z,4.30
2022-10-06T09:04:05.103Z,8.80
2022-10-06T09:09:21.375Z,8.50
2022-10-06T09:14:37.588Z,8.40
2022-10-06T09:19:47.863Z,5.80
2022-10-06T09:24:57.437Z,5.50
2022-10-06T09:35:18.903Z,8.20
2022-10-06T09:40:38.494Z,13.00
2022-10-06T09:45:44.489Z,11.90
2022-10-06T09:51:10.784Z,8.60
2022-10-06T09:56:22.041Z,8.20
2022-10-06T10:01:29.867Z,4.50
2022-10-06T10:06:36.355Z,6.90
2022-10-06T10:12:01.272Z,6.20
2022-10-06T10:17:15.593Z,4.20
2022-10-06T10:22:24.253Z,6.50
2022-10-06T10:27:39.733Z,5.50
2022-10-06T10:33:00.947Z,6.20
2022-10-06T10:38:14.940Z,4.70
2022-10-06T10:43:31.853Z,4.50
2022-10-06T10:48:44.722Z,5.10
2022-10-06T10:53:54.165Z,5.60
2022-10-06T10:59:15.229Z,6.30
2022-10-06T11:05:36.248Z,6.00
2022-10-06T11:10:48.151Z,9.90
2022-10-06T11:16:08.097Z,4.90
2022-10-06T11:21:17.936Z,6.80
2022-10-06T11:26:41.571Z,6.80
2022-10-06T11:31:57.338Z,7.70
2022-10-06T11:37:12.115Z,8.50
2022-10-06T11:42:25.860Z,9.60
2022-10-06T11:47:37.017Z,8.20
2022-10-06T11:52:52.496Z,5.10
2022-10-06T12:03:48.691Z,3.50
2022-10-06T12:08:54.340Z,8.00
2022-10-06T12:15:06.562Z,7.70
2022-10-06T12:19:33.914Z,7.60
2022-10-06T12:25:12.603Z,6.30
2022-10-06T12:30:24.783Z,7.40
2022-10-06T12:35:34.174Z,7.60
2022-10-06T12:40:47.163Z,7.50
2022-10-06T12:45:58.155Z,3.80
2022-10-06T12:51:13.140Z,7.60
2022-10-06T12:56:28.409Z,6.00
2022-10-06T13:01:34.436Z,6.50
2022-10-06T13:06:48.645Z,5.80
2022-10-06T13:11:54.615Z,6.50
2022-10-06T13:17:03.345Z,4.60
2022-10-06T13:22:13.353Z,7.10
2022-10-06T13:27:19.314Z,4.70
2022-10-06T13:32:27.554Z,3.00
2022-10-06T13:37:33.843Z,2.90
2022-10-06T13:42:39.820Z,2.60
2022-10-06T13:47:45.799Z,4.20
2022-10-06T13:52:51.727Z,3.50
2022-10-06T13:58:09.997Z,3.60
2022-10-06T14:03:25.438Z,6.70
2022-10-06T14:08:32.423Z,6.00
2022-10-06T14:13:47.435Z,6.10
2022-10-06T14:18:59.793Z,5.10
2022-10-06T14:24:21.301Z,4.70
2022-10-06T14:29:27.598Z,4.70
2022-10-06T14:34:33.443Z,6.40
2022-10-06T14:39:39.671Z,5.70
2022-10-06T14:44:46.077Z,11.70
2022-10-06T14:49:53.008Z,4.90
2022-10-06T14:54:59.214Z,5.10
2022-10-06T15:00:08.986Z,2.80
2022-10-06T15:05:14.837Z,4.40
2022-10-06T15:10:20.689Z,5.50
2022-10-06T15:15:26.489Z,9.60
2022-10-06T15:20:33.542Z,3.90
2022-10-06T15:25:57.999Z,3.60
2022-10-06T15:31:03.978Z,6.30
2022-10-06T15:36:21.814Z,2.30
2022-10-06T15:41:27.874Z,6.80
2022-10-06T15:46:36.152Z,3.00
2022-10-06T15:51:52.621Z,4.50
2022-10-06T15:57:00.409Z,2.70
2022-10-06T16:02:14.377Z,6.50
2022-10-06T16:07:21.201Z,3.70
2022-10-06T16:12:28.612Z,5.30
2022-10-06T16:17:35.243Z,4.80
2022-10-06T16:22:41.545Z,5.20
2022-10-06T16:27:50.119Z,3.50
2022-10-06T16:32:55.904Z,4.30
2022-10-06T16:38:01.627Z,4.10
2022-10-06T16:43:07.510Z,7.60
2022-10-06T16:48:13.312Z,5.00
2022-10-06T16:53:20.742Z,8.90
2022-10-06T16:58:26.638Z,5.70
2022-10-06T17:03:32.675Z,8.20
2022-10-06T17:08:39.087Z,5.80
2022-10-06T17:13:46.246Z,6.10
2022-10-06T17:18:54.014Z,4.60
2022-10-06T17:24:02.761Z,5.50
2022-10-06T17:29:12.893Z,7.80
2022-10-06T17:34:22.438Z,5.80
2022-10-06T17:39:30.571Z,7.70
2022-10-06T17:44:36.690Z,7.30
2022-10-06T17:49:42.696Z,9.00
2022-10-06T17:54:48.528Z,8.10
2022-10-06T17:59:56.053Z,6.90
2022-10-06T18:05:02.438Z,5.60
2022-10-06T18:10:27.817Z,7.30
2022-10-06T18:15:37.129Z,4.50
2022-10-06T18:20:42.841Z,5.60
2022-10-06T18:25:51.644Z,9.70
2022-10-06T18:30:58.024Z,6.40
2022-10-06T18:36:14.381Z,7.10
2022-10-06T18:41:22.351Z,6.00
2022-10-06T18:46:47.927Z,8.90
2022-10-06T18:51:58.325Z,7.30
2022-10-06T18:57:04.437Z,9.50
2022-10-06T19:02:11.396Z,10.90
2022-10-06T19:07:17.245Z,9.10
2022-10-06T19:12:22.917Z,12.40
2022-10-06T19:17:28.678Z,11.40
2022-10-06T19:22:34.786Z,12.50
2022-10-06T19:27:41.047Z,14.00
2022-10-06T19:32:48.703Z,9.50
2022-10-06T19:37:54.626Z,17.90
2022-10-06T19:43:00.482Z,25.20
2022-10-06T19:48:06.389Z,20.80
2022-10-06T19:53:12.482Z,26.60
2022-10-06T19:58:18.193Z,22.50
2022-10-06T20:03:24.075Z,17.40
2022-10-06T20:08:30.804Z,16.90
2022-10-06T20:13:39.066Z,18.00
2022-10-06T20:18:46.394Z,14.80
2022-10-06T20:23:55.422Z,16.80
2022-10-06T20:29:05.097Z,16.10
2022-10-06T20:34:14.075Z,15.30
2022-10-06T20:39:40.527Z,13.00
2022-10-06T20:44:46.324Z,20.20
2022-10-06T20:49:55.032Z,22.00
2022-10-06T20:55:00.854Z,21.10
2022-10-06T21:00:08.674Z,25.10
2022-10-06T21:05:14.656Z,19.40
2022-10-06T21:10:20.621Z,23.60
2022-10-06T21:15:26.617Z,28.30
2022-10-06T21:20:32.415Z,23.90
2022-10-06T21:25:39.008Z,22.80
2022-10-06T21:30:45.868Z,24.60
2022-10-06T21:35:59.964Z,27.40
2022-10-06T21:41:26.532Z,29.10
2022-10-06T21:46:34.664Z,37.60
2022-10-06T21:51:41.972Z,33.00
2022-10-06T21:56:48.383Z,43.00
2022-10-06T22:01:54.273Z,39.10
2022-10-06T22:06:59.988Z,41.10
2022-10-06T22:12:06.713Z,40.40
2022-10-06T22:17:15.249Z,47.30
2022-10-06T22:22:21.106Z,42.90
2022-10-06T22:27:27.005Z,48.80
2022-10-06T22:32:32.976Z,49.50
2022-10-06T22:37:38.721Z,42.20
2022-10-06T22:42:44.816Z,41.90
2022-10-06T22:47:50.696Z,43.00
2022-10-06T22:52:56.552Z,47.20
2022-10-06T22:58:02.412Z,50.50
2022-10-06T23:03:10.102Z,45.40
2022-10-06T23:08:15.972Z,38.50
2022-10-06T23:13:21.943Z,45.20
2022-10-06T23:18:27.812Z,46.90
2022-10-06T23:23:34.504Z,47.10
2022-10-06T23:28:41.295Z,43.10
2022-10-06T23:33:47.304Z,42.50
2022-10-06T23:38:53.607Z,46.90
2022-10-06T23:43:59.708Z,52.10
2022-10-06T23:49:05.943Z,51.40
2022-10-06T23:54:12.419Z,51.10
2022-10-06T23:59:18.485Z,46.60
